Main page
Satellite images 15-day forecastsClimateMarine weather Cyclones Lightning AirportsFAQ Newsletter About
Weather : Europe Africa North America South America Asia Australia-Oceania Others
Languages Contact

Christchurch, New Zealand

latitude: 43-29S, longitude: 172-33E, elevation: 38 m


METAR: NZCH 260030Z AUTO 23016KT 9999 NCD 12/02 Q1022 NOSIG
short-TAF: missing
long-TAF: NZCH 251711Z 2518/2618 25005KT CAVOK BECMG 2600/2602 25015KT

Time: 13:03 (01:03 UTC)

Current weather observation

The report was made 33 minutes ago, at 00:30 UTC  
Wind 16 kt from the Southwest
Temperature 12°C
Humidity 50%
Pressure 1022 hPa
Visibility 10 km or more

Change units

Forecast

The report was made 7 hours and 48 minutes ago, at 17:15 UTC  
Forecast valid from 25 at 18 UTC to 26 at 18 UTC
Wind 05 kt from the West/Southwest
Visibility 10 km or more
no clouds below 1500 m and no cumulonimbus
Becoming
from 26 at 00 UTC to 26 at 02 UTC
Wind 15 kt from the West/Southwest
The information on this site is subject to a disclaimer
Weather : Europe Africa North America South America Asia Australia-Oceania Others
Satellite images 15-day forecastsClimateMarine weather Cyclones Lightning AirportsFAQ Languages Contact Newsletter About